Morris, MN

4:19 AM CDT on May 29, 2017 (GMT -0500)
Morris Municipal

Weather History for KMOX - November, 2012

Change the Weather History Date:

Sunday, November 11, 2012

  Actual Average Record
Temperature  
Mean Temperature 25 °F -  
Max Temperature 33 °F 39 °F 66 °F (2005)
Min Temperature 17 °F 22 °F 6 °F (2006)
Degree Days  
Heating Degree Days 40    
Moisture  
Dew Point 18 °F    
Average Humidity 79    
Maximum Humidity 100    
Minimum Humidity 68    
Precipitation  
Precipitation 0.00 in - - ()
Sea Level Pressure  
Sea Level Pressure 29.80 in    
Wind  
Wind Speed 21 mph (WNW)    
Max Wind Speed 26 mph    
Max Gust Speed 33 mph    
Visibility 10 miles    
Events      
Averages and records for this station are not official NWS values.
T = Trace of Precipitation, MM = Missing Value Source: NWS Daily Summary

Daily Weather History Graph

Daily Weather History Graph

Search for Another Location

Airport or City:

Trip Planner

Search our weather history database for the weather conditions in past years. The results will help you decide how hot, cold, wet, or windy it might be!

Date:

Astronomy

Nov. 11, 2012 Rise Set
Actual Time 7:18 AM CST 4:57 PM CST
Civil Twilight 6:46 AM CST 5:28 PM CST
Nautical Twilight 6:10 AM CST 6:04 PM CST
Astronomical Twilight 5:35 AM CST 6:39 PM CST
Moon 4:27 AM CST (11/11) 3:26 PM CST (11/11)
Length of Visible Light 10h 42m
Length of Day
9h 38m
Waning Crescent, 7% of the Moon is Illuminated
Nov 11
Waning Crescent
Nov 13
New
Nov 20
First Quarter
Nov 28
Full
Dec 6
Last Quarter

Hourly Weather History & Observations

Time (CST) Temp. Windchill Dew Point Humidity Pressure Visibility Wind Dir Wind Speed Gust Speed Precip Events Conditions
12:29 AM 33.8 °F 21.6 °F 32.0 °F 93% 29.57 in 7.0 mi NW 23.0 mph 33.4 mph N/A   Overcast
12:49 AM 33.8 °F 22.2 °F 30.2 °F 87% 29.60 in 10.0 mi WNW 20.7 mph 28.8 mph N/A   Overcast
1:09 AM 32.0 °F 18.9 °F 30.2 °F 93% 29.61 in 10.0 mi WNW 24.2 mph 29.9 mph N/A   Overcast
1:29 AM 30.2 °F 16.8 °F 30.2 °F 100% 29.61 in 10.0 mi WNW 23.0 mph 28.8 mph N/A   Overcast
1:49 AM 30.2 °F 16.8 °F 28.4 °F 93% 29.62 in 10.0 mi WNW 23.0 mph 31.1 mph N/A   Overcast
2:09 AM 30.2 °F 17.1 °F 26.6 °F 86% 29.62 in 10.0 mi WNW 21.9 mph 28.8 mph N/A   Overcast
2:29 AM 28.4 °F 15.1 °F 26.6 °F 93% 29.64 in 10.0 mi WNW 20.7 mph 25.3 mph N/A   Overcast
2:49 AM 28.4 °F 15.1 °F 26.6 °F 93% 29.64 in 10.0 mi WNW 20.7 mph 27.6 mph N/A   Overcast
3:09 AM 28.4 °F 13.8 °F 24.8 °F 86% 29.67 in 10.0 mi WNW 25.3 mph 33.4 mph N/A   Overcast
3:29 AM 28.4 °F 14.1 °F 24.8 °F 86% 29.68 in 10.0 mi WNW 24.2 mph 29.9 mph N/A   Overcast
3:49 AM 28.4 °F 13.5 °F 24.8 °F 86% 29.68 in 10.0 mi WNW 26.5 mph 29.9 mph N/A   Overcast
4:09 AM 28.4 °F 15.1 °F 24.8 °F 86% 29.69 in 10.0 mi WNW 20.7 mph 27.6 mph N/A   Overcast
4:29 AM 28.4 °F 14.7 °F 24.8 °F 86% 29.71 in 10.0 mi WNW 21.9 mph - N/A   Overcast
4:49 AM 26.6 °F 12.0 °F 23.0 °F 86% 29.71 in 10.0 mi WNW 23.0 mph 32.2 mph N/A   Overcast
5:09 AM 26.6 °F 11.4 °F 21.2 °F 80% 29.74 in 10.0 mi WNW 25.3 mph 29.9 mph N/A   Overcast
5:29 AM 26.6 °F 11.4 °F 21.2 °F 80% 29.73 in 10.0 mi WNW 25.3 mph 31.1 mph N/A   Overcast
5:49 AM 26.6 °F 11.4 °F 21.2 °F 80% 29.73 in 10.0 mi WNW 25.3 mph 29.9 mph N/A   Overcast
6:09 AM 26.6 °F 12.7 °F 21.2 °F 80% 29.74 in 10.0 mi WNW 20.7 mph 29.9 mph N/A   Overcast
6:29 AM 24.8 °F 9.6 °F 21.2 °F 86% 29.74 in 10.0 mi WNW 23.0 mph 31.1 mph N/A   Overcast
6:49 AM 24.8 °F 9.0 °F 19.4 °F 80% 29.76 in 10.0 mi WNW 25.3 mph 31.1 mph N/A   Overcast
7:29 AM 24.8 °F 10.3 °F 19.4 °F 80% 29.76 in 10.0 mi WNW 20.7 mph 28.8 mph N/A   Scattered Clouds
7:49 AM 24.8 °F 10.0 °F 19.4 °F 80% 29.78 in 10.0 mi WNW 21.9 mph 28.8 mph N/A   Mostly Cloudy
8:09 AM 24.8 °F 9.6 °F 19.4 °F 80% 29.79 in 10.0 mi WNW 23.0 mph 29.9 mph N/A   Overcast
8:29 AM 23.0 °F 8.3 °F 17.6 °F 80% 29.79 in 10.0 mi WNW 19.6 mph 27.6 mph N/A   Overcast
8:49 AM 23.0 °F 8.3 °F 17.6 °F 80% 29.80 in 10.0 mi WNW 19.6 mph 26.5 mph N/A   Overcast
9:09 AM 23.0 °F 8.7 °F 17.6 °F 80% 29.81 in 10.0 mi WNW 18.4 mph - N/A   Overcast
9:49 AM 23.0 °F 8.3 °F 17.6 °F 80% 29.79 in 10.0 mi WNW 19.6 mph 24.2 mph N/A   Overcast
10:09 AM 23.0 °F 8.7 °F 17.6 °F 80% 29.81 in 10.0 mi West 18.4 mph 25.3 mph N/A   Overcast
10:29 AM 23.0 °F 9.6 °F 17.6 °F 80% 29.82 in 10.0 mi WNW 16.1 mph 24.2 mph N/A   Overcast
10:49 AM 21.2 °F 6.4 °F 17.6 °F 86% 29.83 in 10.0 mi WNW 18.4 mph 24.2 mph N/A   Overcast
11:09 AM 23.0 °F 9.6 °F 17.6 °F 80% 29.82 in 10.0 mi West 16.1 mph - N/A   Overcast
11:29 AM 21.2 °F 6.8 °F 15.8 °F 80% 29.82 in 10.0 mi WNW 17.3 mph - N/A   Mostly Cloudy
11:49 AM 24.8 °F 10.7 °F 17.6 °F 74% 29.81 in 10.0 mi WNW 19.6 mph 23.0 mph N/A   Mostly Cloudy
12:09 PM 24.8 °F 12.4 °F 17.6 °F 74% 29.82 in 10.0 mi WNW 15.0 mph - N/A   Overcast
12:29 PM 24.8 °F 11.1 °F 17.6 °F 74% 29.81 in 10.0 mi West 18.4 mph 25.3 mph N/A   Overcast
12:49 PM 24.8 °F 11.5 °F 17.6 °F 74% 29.82 in 10.0 mi West 17.3 mph - N/A   Overcast
1:09 PM 24.8 °F 11.9 °F 17.6 °F 74% 29.82 in 10.0 mi West 16.1 mph - N/A   Overcast
1:29 PM 24.8 °F 12.4 °F 17.6 °F 74% 29.82 in 10.0 mi West 15.0 mph - N/A   Overcast
1:49 PM 24.8 °F 11.1 °F 17.6 °F 74% 29.81 in 10.0 mi WNW 18.4 mph - N/A   Overcast
2:09 PM 24.8 °F 11.9 °F 15.8 °F 69% 29.81 in 10.0 mi West 16.1 mph 25.3 mph N/A   Overcast
2:29 PM 24.8 °F 10.7 °F 15.8 °F 69% 29.81 in 10.0 mi West 19.6 mph - N/A   Overcast
2:49 PM 24.8 °F 10.7 °F 15.8 °F 69% 29.81 in 10.0 mi WNW 19.6 mph 23.0 mph N/A   Overcast
3:09 PM 24.8 °F 10.3 °F 15.8 °F 69% 29.82 in 10.0 mi West 20.7 mph - N/A   Overcast
3:29 PM 23.0 °F 8.3 °F 15.8 °F 74% 29.83 in 10.0 mi WNW 19.6 mph 27.6 mph N/A   Overcast
3:49 PM 23.0 °F 8.0 °F 15.8 °F 74% 29.84 in 10.0 mi West 20.7 mph - N/A   Overcast
4:09 PM 21.2 °F 6.0 °F 15.8 °F 80% 29.85 in 10.0 mi West 19.6 mph 27.6 mph N/A   Overcast
4:29 PM 21.2 °F 6.8 °F 15.8 °F 80% 29.85 in 10.0 mi WNW 17.3 mph - N/A   Overcast
4:49 PM 21.2 °F 5.6 °F 14.0 °F 74% 29.86 in 10.0 mi West 20.7 mph 24.2 mph N/A   Overcast
5:09 PM 21.2 °F 5.2 °F 14.0 °F 74% 29.86 in 10.0 mi West 21.9 mph 25.3 mph N/A   Overcast
5:29 PM 21.2 °F 6.0 °F 14.0 °F 74% 29.87 in 10.0 mi West 19.6 mph 26.5 mph N/A   Overcast
5:49 PM 19.4 °F 4.1 °F 12.2 °F 74% 29.87 in 10.0 mi West 18.4 mph - N/A   Overcast
6:09 PM 19.4 °F 4.1 °F 12.2 °F 74% 29.88 in 10.0 mi West 18.4 mph - N/A   Overcast
6:29 PM 19.4 °F 4.1 °F 12.2 °F 74% 29.89 in 10.0 mi West 18.4 mph - N/A   Overcast
6:49 PM 19.4 °F 4.5 °F 12.2 °F 74% 29.89 in 10.0 mi West 17.3 mph 21.9 mph N/A   Overcast
7:09 PM 19.4 °F 4.1 °F 12.2 °F 74% 29.89 in 10.0 mi West 18.4 mph - N/A   Overcast
7:29 PM 19.4 °F 4.1 °F 10.4 °F 68% 29.89 in 10.0 mi West 18.4 mph 29.9 mph N/A   Overcast
7:49 PM 19.4 °F 3.6 °F 12.2 °F 74% 29.89 in 10.0 mi West 19.6 mph - N/A   Mostly Cloudy
8:09 PM 19.4 °F 6.0 °F 10.4 °F 68% 29.89 in 10.0 mi West 13.8 mph - N/A   Overcast
8:29 PM 17.6 °F 2.7 °F 12.2 °F 79% 29.89 in 10.0 mi West 16.1 mph - N/A   Overcast
8:49 PM 17.6 °F 3.2 °F 12.2 °F 79% 29.89 in 10.0 mi West 15.0 mph - N/A   Overcast
9:09 PM 17.6 °F 4.3 °F 12.2 °F 79% 29.89 in 10.0 mi West 12.7 mph - N/A   Overcast
9:29 PM 17.6 °F 3.7 °F 12.2 °F 79% 29.89 in 10.0 mi West 13.8 mph - N/A   Mostly Cloudy
9:49 PM 17.6 °F 4.3 °F 12.2 °F 79% 29.90 in 10.0 mi West 12.7 mph - N/A   Mostly Cloudy
10:09 PM 17.6 °F 3.2 °F 12.2 °F 79% 29.89 in 10.0 mi West 15.0 mph - N/A   Mostly Cloudy
10:29 PM 17.6 °F 4.3 °F 12.2 °F 79% 29.89 in 10.0 mi West 12.7 mph - N/A   Overcast
10:49 PM 17.6 °F 4.3 °F 12.2 °F 79% 29.89 in 10.0 mi West 12.7 mph - N/A   Overcast
11:09 PM 17.6 °F 4.3 °F 12.2 °F 79% 29.89 in 10.0 mi West 12.7 mph - N/A   Overcast
11:29 PM 19.4 °F 7.9 °F 12.2 °F 74% 29.89 in 10.0 mi West 10.4 mph - N/A   Overcast
11:49 PM 19.4 °F 6.6 °F 14.0 °F 80% 29.89 in 10.0 mi West 12.7 mph - N/A   Overcast